sensor_id;sensor_type;location;lat;lon;timestamp;P1;durP1;ratioP1;P2;durP2;ratioP2
25111;SDS011;13092;51.996;4.458;2023-02-01T00:01:24;25.20;;;20.60;;
25111;SDS011;13092;51.996;4.458;2023-02-01T00:03:53;23.87;;;19.60;;
25111;SDS011;13092;51.996;4.458;2023-02-01T00:06:21;20.63;;;18.48;;
25111;SDS011;13092;51.996;4.458;2023-02-01T00:08:51;22.77;;;19.57;;
25111;SDS011;13092;51.996;4.458;2023-02-01T00:11:20;23.73;;;20.23;;
25111;SDS011;13092;51.996;4.458;2023-02-01T00:13:48;28.00;;;20.35;;
25111;SDS011;13092;51.996;4.458;2023-02-01T00:16:17;20.60;;;18.58;;
25111;SDS011;13092;51.996;4.458;2023-02-01T00:18:47;24.37;;;17.73;;
25111;SDS011;13092;51.996;4.458;2023-02-01T00:21:18;22.37;;;17.50;;
25111;SDS011;13092;51.996;4.458;2023-02-01T00:23:47;23.23;;;18.83;;
25111;SDS011;13092;51.996;4.458;2023-02-01T00:26:16;25.40;;;16.15;;
25111;SDS011;13092;51.996;4.458;2023-02-01T00:28:49;27.10;;;17.13;;
25111;SDS011;13092;51.996;4.458;2023-02-01T00:31:18;24.10;;;16.42;;
25111;SDS011;13092;51.996;4.458;2023-02-01T00:33:46;25.30;;;17.57;;
25111;SDS011;13092;51.996;4.458;2023-02-01T00:36:14;18.98;;;16.50;;
25111;SDS011;13092;51.996;4.458;2023-02-01T00:38:46;17.07;;;15.27;;
25111;SDS011;13092;51.996;4.458;2023-02-01T00:41:15;19.50;;;15.53;;
25111;SDS011;13092;51.996;4.458;2023-02-01T00:43:45;24.65;;;16.25;;
25111;SDS011;13092;51.996;4.458;2023-02-01T00:46:14;23.40;;;15.93;;
25111;SDS011;13092;51.996;4.458;2023-02-01T00:48:44;23.27;;;16.63;;
25111;SDS011;13092;51.996;4.458;2023-02-01T00:51:14;19.37;;;16.57;;
25111;SDS011;13092;51.996;4.458;2023-02-01T00:53:43;22.97;;;17.80;;
25111;SDS011;13092;51.996;4.458;2023-02-01T00:56:13;21.07;;;18.10;;
25111;SDS011;13092;51.996;4.458;2023-02-01T00:58:41;24.60;;;18.63;;
25111;SDS011;13092;51.996;4.458;2023-02-01T01:01:12;27.37;;;20.63;;
25111;SDS011;13092;51.996;4.458;2023-02-01T01:03:42;23.97;;;20.23;;
25111;SDS011;13092;51.996;4.458;2023-02-01T01:06:13;23.50;;;19.97;;
25111;SDS011;13092;51.996;4.458;2023-02-01T01:08:42;32.67;;;21.60;;
25111;SDS011;13092;51.996;4.458;2023-02-01T01:11:11;25.97;;;21.60;;
25111;SDS011;13092;51.996;4.458;2023-02-01T01:13:42;25.87;;;20.70;;
25111;SDS011;13092;51.996;4.458;2023-02-01T01:16:13;28.57;;;21.17;;
25111;SDS011;13092;51.996;4.458;2023-02-01T01:18:42;24.33;;;22.00;;
25111;SDS011;13092;51.996;4.458;2023-02-01T01:21:11;28.90;;;22.97;;
25111;SDS011;13092;51.996;4.458;2023-02-01T01:23:40;24.88;;;21.80;;
25111;SDS011;13092;51.996;4.458;2023-02-01T01:26:09;25.00;;;22.55;;
25111;SDS011;13092;51.996;4.458;2023-02-01T01:28:41;25.77;;;23.07;;
25111;SDS011;13092;51.996;4.458;2023-02-01T01:31:09;25.70;;;23.07;;
25111;SDS011;13092;51.996;4.458;2023-02-01T01:33:39;24.48;;;21.90;;
25111;SDS011;13092;51.996;4.458;2023-02-01T01:36:07;28.20;;;24.10;;
25111;SDS011;13092;51.996;4.458;2023-02-01T01:38:38;28.20;;;23.87;;
25111;SDS011;13092;51.996;4.458;2023-02-01T01:41:07;31.07;;;23.43;;
25111;SDS011;13092;51.996;4.458;2023-02-01T01:43:50;32.07;;;23.43;;
25111;SDS011;13092;51.996;4.458;2023-02-01T01:46:21;30.73;;;23.63;;
25111;SDS011;13092;51.996;4.458;2023-02-01T01:48:56;29.77;;;24.93;;
25111;SDS011;13092;51.996;4.458;2023-02-01T01:51:32;28.73;;;25.47;;
25111;SDS011;13092;51.996;4.458;2023-02-01T01:54:07;31.83;;;24.50;;
25111;SDS011;13092;51.996;4.458;2023-02-01T01:56:39;28.00;;;25.10;;
25111;SDS011;13092;51.996;4.458;2023-02-01T01:59:10;32.67;;;26.57;;
25111;SDS011;13092;51.996;4.458;2023-02-01T02:01:39;29.67;;;26.47;;
25111;SDS011;13092;51.996;4.458;2023-02-01T02:04:07;33.80;;;25.83;;
25111;SDS011;13092;51.996;4.458;2023-02-01T02:06:40;31.30;;;26.57;;
25111;SDS011;13092;51.996;4.458;2023-02-01T02:09:14;30.33;;;26.43;;
25111;SDS011;13092;51.996;4.458;2023-02-01T02:11:43;30.47;;;27.17;;
25111;SDS011;13092;51.996;4.458;2023-02-01T02:14:13;30.50;;;27.20;;
25111;SDS011;13092;51.996;4.458;2023-02-01T02:16:47;29.37;;;26.63;;
25111;SDS011;13092;51.996;4.458;2023-02-01T02:22:45;28.00;;;24.87;;
25111;SDS011;13092;51.996;4.458;2023-02-01T02:25:30;28.97;;;25.53;;
25111;SDS011;13092;51.996;4.458;2023-02-01T02:28:26;30.13;;;25.77;;
25111;SDS011;13092;51.996;4.458;2023-02-01T02:31:29;27.73;;;24.90;;
25111;SDS011;13092;51.996;4.458;2023-02-01T02:34:17;29.27;;;25.93;;
25111;SDS011;13092;51.996;4.458;2023-02-01T02:36:55;29.97;;;26.17;;
25111;SDS011;13092;51.996;4.458;2023-02-01T02:39:34;35.37;;;27.20;;
25111;SDS011;13092;51.996;4.458;2023-02-01T02:42:10;34.90;;;28.10;;
25111;SDS011;13092;51.996;4.458;2023-02-01T02:45:00;34.57;;;27.80;;
25111;SDS011;13092;51.996;4.458;2023-02-01T02:47:50;32.03;;;28.00;;
25111;SDS011;13092;51.996;4.458;2023-02-01T02:50:25;31.07;;;27.93;;
25111;SDS011;13092;51.996;4.458;2023-02-01T02:53:15;33.38;;;27.73;;
25111;SDS011;13092;51.996;4.458;2023-02-01T02:56:03;29.73;;;26.83;;
25111;SDS011;13092;51.996;4.458;2023-02-01T02:58:51;36.00;;;29.60;;
25111;SDS011;13092;51.996;4.458;2023-02-01T03:01:38;35.65;;;26.90;;
25111;SDS011;13092;51.996;4.458;2023-02-01T03:04:27;29.77;;;26.77;;
25111;SDS011;13092;51.996;4.458;2023-02-01T03:07:09;29.87;;;26.90;;
25111;SDS011;13092;51.996;4.458;2023-02-01T03:09:42;30.40;;;27.37;;
25111;SDS011;13092;51.996;4.458;2023-02-01T03:12:15;33.27;;;27.20;;
25111;SDS011;13092;51.996;4.458;2023-02-01T03:15:03;32.90;;;27.80;;
25111;SDS011;13092;51.996;4.458;2023-02-01T03:17:39;30.23;;;27.07;;
25111;SDS011;13092;51.996;4.458;2023-02-01T03:20:10;32.90;;;27.30;;
25111;SDS011;13092;51.996;4.458;2023-02-01T03:22:43;35.07;;;27.57;;
25111;SDS011;13092;51.996;4.458;2023-02-01T03:25:13;33.87;;;27.17;;
25111;SDS011;13092;51.996;4.458;2023-02-01T03:27:46;29.33;;;25.97;;
25111;SDS011;13092;51.996;4.458;2023-02-01T03:30:19;36.23;;;27.53;;
25111;SDS011;13092;51.996;4.458;2023-02-01T03:32:51;34.43;;;27.20;;
25111;SDS011;13092;51.996;4.458;2023-02-01T03:35:28;36.60;;;26.70;;
25111;SDS011;13092;51.996;4.458;2023-02-01T03:38:03;34.00;;;26.87;;
25111;SDS011;13092;51.996;4.458;2023-02-01T03:40:37;29.17;;;26.37;;
25111;SDS011;13092;51.996;4.458;2023-02-01T03:43:07;30.30;;;27.20;;
25111;SDS011;13092;51.996;4.458;2023-02-01T03:45:42;36.90;;;27.50;;
25111;SDS011;13092;51.996;4.458;2023-02-01T03:48:13;33.80;;;26.83;;
25111;SDS011;13092;51.996;4.458;2023-02-01T03:50:43;32.40;;;27.47;;
25111;SDS011;13092;51.996;4.458;2023-02-01T03:53:17;31.40;;;28.03;;
25111;SDS011;13092;51.996;4.458;2023-02-01T03:55:48;33.13;;;26.80;;
25111;SDS011;13092;51.996;4.458;2023-02-01T03:58:18;29.80;;;26.87;;
25111;SDS011;13092;51.996;4.458;2023-02-01T04:00:50;30.17;;;25.60;;
25111;SDS011;13092;51.996;4.458;2023-02-01T04:03:20;29.23;;;26.53;;
25111;SDS011;13092;51.996;4.458;2023-02-01T04:05:49;31.10;;;26.83;;
25111;SDS011;13092;51.996;4.458;2023-02-01T04:08:18;28.57;;;25.93;;
25111;SDS011;13092;51.996;4.458;2023-02-01T04:10:50;29.23;;;26.07;;
25111;SDS011;13092;51.996;4.458;2023-02-01T04:13:18;29.00;;;26.13;;
25111;SDS011;13092;51.996;4.458;2023-02-01T04:15:46;32.70;;;25.97;;
25111;SDS011;13092;51.996;4.458;2023-02-01T04:18:16;30.03;;;26.67;;
25111;SDS011;13092;51.996;4.458;2023-02-01T04:20:44;30.40;;;25.90;;
25111;SDS011;13092;51.996;4.458;2023-02-01T04:23:12;28.10;;;25.23;;
25111;SDS011;13092;51.996;4.458;2023-02-01T04:25:43;29.13;;;26.13;;
25111;SDS011;13092;51.996;4.458;2023-02-01T04:28:11;29.53;;;26.60;;
25111;SDS011;13092;51.996;4.458;2023-02-01T04:30:39;28.93;;;26.10;;
25111;SDS011;13092;51.996;4.458;2023-02-01T04:33:08;29.20;;;26.37;;
25111;SDS011;13092;51.996;4.458;2023-02-01T04:35:36;29.30;;;26.47;;
25111;SDS011;13092;51.996;4.458;2023-02-01T04:38:04;28.73;;;25.93;;
25111;SDS011;13092;51.996;4.458;2023-02-01T04:40:33;30.97;;;26.93;;
25111;SDS011;13092;51.996;4.458;2023-02-01T04:43:02;28.50;;;25.43;;
25111;SDS011;13092;51.996;4.458;2023-02-01T04:45:34;30.77;;;25.43;;
25111;SDS011;13092;51.996;4.458;2023-02-01T04:48:03;26.50;;;24.10;;
25111;SDS011;13092;51.996;4.458;2023-02-01T04:50:32;27.83;;;25.03;;
25111;SDS011;13092;51.996;4.458;2023-02-01T04:53:00;27.07;;;24.57;;
25111;SDS011;13092;51.996;4.458;2023-02-01T04:55:28;27.17;;;24.63;;
25111;SDS011;13092;51.996;4.458;2023-02-01T04:57:57;29.10;;;25.50;;
25111;SDS011;13092;51.996;4.458;2023-02-01T05:00:26;28.17;;;25.47;;
25111;SDS011;13092;51.996;4.458;2023-02-01T05:02:54;25.90;;;23.80;;
25111;SDS011;13092;51.996;4.458;2023-02-01T05:05:22;31.00;;;25.93;;
25111;SDS011;13092;51.996;4.458;2023-02-01T05:07:50;30.27;;;25.73;;
25111;SDS011;13092;51.996;4.458;2023-02-01T05:10:18;27.53;;;25.10;;
25111;SDS011;13092;51.996;4.458;2023-02-01T05:12:47;28.17;;;25.43;;
25111;SDS011;13092;51.996;4.458;2023-02-01T05:15:34;28.27;;;25.43;;
25111;SDS011;13092;51.996;4.458;2023-02-01T05:18:02;30.90;;;27.17;;
25111;SDS011;13092;51.996;4.458;2023-02-01T05:20:30;29.23;;;26.03;;
25111;SDS011;13092;51.996;4.458;2023-02-01T05:22:58;29.20;;;26.23;;
25111;SDS011;13092;51.996;4.458;2023-02-01T05:25:26;30.47;;;26.97;;
25111;SDS011;13092;51.996;4.458;2023-02-01T05:27:54;28.00;;;25.33;;
25111;SDS011;13092;51.996;4.458;2023-02-01T05:30:22;28.80;;;25.77;;
25111;SDS011;13092;51.996;4.458;2023-02-01T05:32:52;29.37;;;26.10;;
25111;SDS011;13092;51.996;4.458;2023-02-01T05:35:20;33.60;;;27.03;;
25111;SDS011;13092;51.996;4.458;2023-02-01T05:37:48;31.90;;;27.33;;
25111;SDS011;13092;51.996;4.458;2023-02-01T05:40:16;30.23;;;26.93;;
25111;SDS011;13092;51.996;4.458;2023-02-01T05:42:45;29.17;;;26.10;;
25111;SDS011;13092;51.996;4.458;2023-02-01T05:45:13;31.93;;;26.70;;
25111;SDS011;13092;51.996;4.458;2023-02-01T05:47:41;28.87;;;26.10;;
25111;SDS011;13092;51.996;4.458;2023-02-01T05:50:11;28.33;;;25.50;;
25111;SDS011;13092;51.996;4.458;2023-02-01T05:52:39;30.30;;;27.40;;
25111;SDS011;13092;51.996;4.458;2023-02-01T05:55:07;30.63;;;25.97;;
25111;SDS011;13092;51.996;4.458;2023-02-01T05:57:36;33.10;;;28.10;;
25111;SDS011;13092;51.996;4.458;2023-02-01T06:00:04;30.33;;;27.17;;
25111;SDS011;13092;51.996;4.458;2023-02-01T06:02:33;33.47;;;26.87;;
25111;SDS011;13092;51.996;4.458;2023-02-01T06:05:02;33.27;;;26.53;;
25111;SDS011;13092;51.996;4.458;2023-02-01T06:07:32;28.90;;;25.50;;
25111;SDS011;13092;51.996;4.458;2023-02-01T06:10:00;29.50;;;26.33;;
25111;SDS011;13092;51.996;4.458;2023-02-01T06:12:28;29.87;;;26.63;;
25111;SDS011;13092;51.996;4.458;2023-02-01T06:14:56;31.27;;;26.53;;
25111;SDS011;13092;51.996;4.458;2023-02-01T06:17:24;32.97;;;25.83;;
25111;SDS011;13092;51.996;4.458;2023-02-01T06:19:53;28.63;;;25.80;;
25111;SDS011;13092;51.996;4.458;2023-02-01T06:22:21;28.33;;;25.43;;
25111;SDS011;13092;51.996;4.458;2023-02-01T06:24:50;27.87;;;24.97;;
25111;SDS011;13092;51.996;4.458;2023-02-01T06:27:18;28.43;;;24.90;;
25111;SDS011;13092;51.996;4.458;2023-02-01T06:29:47;27.87;;;25.03;;
25111;SDS011;13092;51.996;4.458;2023-02-01T06:32:15;28.67;;;25.00;;
25111;SDS011;13092;51.996;4.458;2023-02-01T06:34:44;28.63;;;25.53;;
25111;SDS011;13092;51.996;4.458;2023-02-01T06:37:12;26.97;;;24.17;;
25111;SDS011;13092;51.996;4.458;2023-02-01T06:39:40;27.43;;;24.43;;
25111;SDS011;13092;51.996;4.458;2023-02-01T06:42:10;27.33;;;24.43;;
25111;SDS011;13092;51.996;4.458;2023-02-01T06:44:38;30.90;;;23.67;;
25111;SDS011;13092;51.996;4.458;2023-02-01T06:47:06;26.27;;;23.80;;
25111;SDS011;13092;51.996;4.458;2023-02-01T06:49:34;27.10;;;23.73;;
25111;SDS011;13092;51.996;4.458;2023-02-01T06:52:03;27.03;;;23.93;;
25111;SDS011;13092;51.996;4.458;2023-02-01T06:54:31;26.10;;;23.50;;
25111;SDS011;13092;51.996;4.458;2023-02-01T06:57:00;32.40;;;25.37;;
25111;SDS011;13092;51.996;4.458;2023-02-01T06:59:30;31.60;;;24.20;;
25111;SDS011;13092;51.996;4.458;2023-02-01T07:01:58;26.77;;;23.77;;
25111;SDS011;13092;51.996;4.458;2023-02-01T07:04:27;27.87;;;24.90;;
25111;SDS011;13092;51.996;4.458;2023-02-01T07:06:55;31.20;;;24.70;;
25111;SDS011;13092;51.996;4.458;2023-02-01T07:09:23;28.83;;;25.03;;
25111;SDS011;13092;51.996;4.458;2023-02-01T07:11:51;27.90;;;25.00;;
25111;SDS011;13092;51.996;4.458;2023-02-01T07:14:19;27.93;;;25.20;;
25111;SDS011;13092;51.996;4.458;2023-02-01T07:16:48;28.13;;;25.40;;
25111;SDS011;13092;51.996;4.458;2023-02-01T07:19:17;27.53;;;24.97;;
25111;SDS011;13092;51.996;4.458;2023-02-01T07:21:45;27.33;;;24.43;;
25111;SDS011;13092;51.996;4.458;2023-02-01T07:24:13;27.77;;;25.03;;
25111;SDS011;13092;51.996;4.458;2023-02-01T07:26:41;29.03;;;25.10;;
25111;SDS011;13092;51.996;4.458;2023-02-01T07:29:10;33.03;;;25.40;;
25111;SDS011;13092;51.996;4.458;2023-02-01T07:31:40;28.30;;;25.00;;
25111;SDS011;13092;51.996;4.458;2023-02-01T07:34:10;27.83;;;24.93;;
25111;SDS011;13092;51.996;4.458;2023-02-01T07:36:38;28.53;;;25.33;;
25111;SDS011;13092;51.996;4.458;2023-02-01T07:39:06;28.00;;;24.97;;
25111;SDS011;13092;51.996;4.458;2023-02-01T07:41:34;28.27;;;25.47;;
25111;SDS011;13092;51.996;4.458;2023-02-01T07:44:03;27.60;;;24.70;;
25111;SDS011;13092;51.996;4.458;2023-02-01T07:46:31;26.47;;;23.90;;
25111;SDS011;13092;51.996;4.458;2023-02-01T07:48:59;30.23;;;23.83;;
25111;SDS011;13092;51.996;4.458;2023-02-01T07:51:29;29.20;;;24.20;;
25111;SDS011;13092;51.996;4.458;2023-02-01T07:53:57;28.53;;;25.50;;
25111;SDS011;13092;51.996;4.458;2023-02-01T07:56:25;32.63;;;24.10;;
25111;SDS011;13092;51.996;4.458;2023-02-01T07:58:54;28.73;;;25.07;;
25111;SDS011;13092;51.996;4.458;2023-02-01T08:01:23;29.60;;;25.20;;
25111;SDS011;13092;51.996;4.458;2023-02-01T08:03:52;28.87;;;25.10;;
25111;SDS011;13092;51.996;4.458;2023-02-01T08:06:22;29.63;;;25.80;;
25111;SDS011;13092;51.996;4.458;2023-02-01T08:08:52;28.13;;;24.80;;
25111;SDS011;13092;51.996;4.458;2023-02-01T08:11:22;26.77;;;24.30;;
25111;SDS011;13092;51.996;4.458;2023-02-01T08:13:51;27.70;;;25.10;;
25111;SDS011;13092;51.996;4.458;2023-02-01T08:16:20;27.87;;;24.90;;
25111;SDS011;13092;51.996;4.458;2023-02-01T08:18:48;27.07;;;24.57;;
25111;SDS011;13092;51.996;4.458;2023-02-01T08:21:18;27.10;;;24.23;;
25111;SDS011;13092;51.996;4.458;2023-02-01T08:23:48;26.83;;;24.33;;
25111;SDS011;13092;51.996;4.458;2023-02-01T08:26:18;27.03;;;24.33;;
25111;SDS011;13092;51.996;4.458;2023-02-01T08:28:49;27.07;;;24.33;;
25111;SDS011;13092;51.996;4.458;2023-02-01T08:31:19;28.60;;;24.93;;
25111;SDS011;13092;51.996;4.458;2023-02-01T08:33:50;28.83;;;24.10;;
25111;SDS011;13092;51.996;4.458;2023-02-01T08:36:20;26.70;;;24.37;;
25111;SDS011;13092;51.996;4.458;2023-02-01T08:38:49;27.40;;;24.47;;
25111;SDS011;13092;51.996;4.458;2023-02-01T08:41:20;31.90;;;26.23;;
25111;SDS011;13092;51.996;4.458;2023-02-01T08:43:50;26.50;;;23.90;;
25111;SDS011;13092;51.996;4.458;2023-02-01T08:46:19;25.93;;;23.53;;
25111;SDS011;13092;51.996;4.458;2023-02-01T08:48:47;31.60;;;24.17;;
25111;SDS011;13092;51.996;4.458;2023-02-01T08:51:17;28.53;;;24.73;;
25111;SDS011;13092;51.996;4.458;2023-02-01T08:53:46;28.80;;;25.77;;
25111;SDS011;13092;51.996;4.458;2023-02-01T08:56:15;28.27;;;25.30;;
25111;SDS011;13092;51.996;4.458;2023-02-01T08:58:49;26.97;;;24.40;;
25111;SDS011;13092;51.996;4.458;2023-02-01T09:01:17;27.03;;;24.30;;
25111;SDS011;13092;51.996;4.458;2023-02-01T09:03:46;28.20;;;24.63;;
25111;SDS011;13092;51.996;4.458;2023-02-01T09:06:14;27.33;;;24.58;;
25111;SDS011;13092;51.996;4.458;2023-02-01T09:08:45;30.30;;;24.70;;
25111;SDS011;13092;51.996;4.458;2023-02-01T09:11:16;27.93;;;25.27;;
25111;SDS011;13092;51.996;4.458;2023-02-01T09:13:46;27.50;;;24.88;;
25111;SDS011;13092;51.996;4.458;2023-02-01T09:16:16;27.17;;;24.33;;
25111;SDS011;13092;51.996;4.458;2023-02-01T09:18:45;27.30;;;24.27;;
25111;SDS011;13092;51.996;4.458;2023-02-01T09:21:44;27.50;;;24.23;;
25111;SDS011;13092;51.996;4.458;2023-02-01T09:24:12;25.27;;;23.17;;
25111;SDS011;13092;51.996;4.458;2023-02-01T09:26:41;26.43;;;23.80;;
25111;SDS011;13092;51.996;4.458;2023-02-01T09:29:09;32.47;;;23.17;;
25111;SDS011;13092;51.996;4.458;2023-02-01T09:31:39;28.87;;;23.90;;
25111;SDS011;13092;51.996;4.458;2023-02-01T09:34:18;26.30;;;23.57;;
25111;SDS011;13092;51.996;4.458;2023-02-01T09:36:47;26.63;;;23.83;;
25111;SDS011;13092;51.996;4.458;2023-02-01T09:39:15;27.02;;;24.48;;
25111;SDS011;13092;51.996;4.458;2023-02-01T09:41:47;28.97;;;24.37;;
25111;SDS011;13092;51.996;4.458;2023-02-01T09:44:28;38.37;;;24.87;;
25111;SDS011;13092;51.996;4.458;2023-02-01T09:47:16;26.13;;;23.70;;
25111;SDS011;13092;51.996;4.458;2023-02-01T09:49:48;26.60;;;23.70;;
25111;SDS011;13092;51.996;4.458;2023-02-01T09:52:23;29.80;;;23.47;;
25111;SDS011;13092;51.996;4.458;2023-02-01T09:55:00;24.40;;;22.13;;
25111;SDS011;13092;51.996;4.458;2023-02-01T09:57:35;25.45;;;23.08;;
25111;SDS011;13092;51.996;4.458;2023-02-01T10:00:13;25.65;;;22.98;;
25111;SDS011;13092;51.996;4.458;2023-02-01T10:02:46;29.43;;;22.73;;
25111;SDS011;13092;51.996;4.458;2023-02-01T10:05:15;28.85;;;23.50;;
25111;SDS011;13092;51.996;4.458;2023-02-01T10:07:51;31.92;;;24.42;;
25111;SDS011;13092;51.996;4.458;2023-02-01T10:10:28;28.77;;;23.40;;
25111;SDS011;13092;51.996;4.458;2023-02-01T10:13:08;28.13;;;22.92;;
25111;SDS011;13092;51.996;4.458;2023-02-01T10:15:52;28.60;;;24.13;;
25111;SDS011;13092;51.996;4.458;2023-02-01T10:21:33;26.03;;;23.53;;
25111;SDS011;13092;51.996;4.458;2023-02-01T10:24:25;27.00;;;24.10;;
25111;SDS011;13092;51.996;4.458;2023-02-01T10:27:08;29.37;;;25.03;;
25111;SDS011;13092;51.996;4.458;2023-02-01T10:29:42;27.33;;;24.63;;
25111;SDS011;13092;51.996;4.458;2023-02-01T10:32:13;28.77;;;24.27;;
25111;SDS011;13092;51.996;4.458;2023-02-01T10:34:46;31.03;;;24.47;;
25111;SDS011;13092;51.996;4.458;2023-02-01T10:37:27;28.20;;;24.27;;
25111;SDS011;13092;51.996;4.458;2023-02-01T10:39:59;27.07;;;24.60;;
25111;SDS011;13092;51.996;4.458;2023-02-01T10:42:33;29.03;;;24.90;;
25111;SDS011;13092;51.996;4.458;2023-02-01T10:45:02;27.77;;;25.00;;
25111;SDS011;13092;51.996;4.458;2023-02-01T10:47:31;28.30;;;24.77;;
25111;SDS011;13092;51.996;4.458;2023-02-01T10:50:04;27.20;;;24.60;;
25111;SDS011;13092;51.996;4.458;2023-02-01T10:52:43;26.87;;;24.27;;
25111;SDS011;13092;51.996;4.458;2023-02-01T10:55:29;26.23;;;23.73;;
25111;SDS011;13092;51.996;4.458;2023-02-01T10:58:06;27.98;;;22.92;;
25111;SDS011;13092;51.996;4.458;2023-02-01T11:00:43;26.17;;;23.58;;
25111;SDS011;13092;51.996;4.458;2023-02-01T11:08:57;32.45;;;24.90;;
25111;SDS011;13092;51.996;4.458;2023-02-01T11:11:28;25.48;;;23.33;;
25111;SDS011;13092;51.996;4.458;2023-02-01T11:13:57;25.63;;;23.10;;
25111;SDS011;13092;51.996;4.458;2023-02-01T11:16:33;27.25;;;24.42;;
25111;SDS011;13092;51.996;4.458;2023-02-01T11:19:03;25.90;;;23.17;;
25111;SDS011;13092;51.996;4.458;2023-02-01T11:21:33;25.23;;;22.52;;
25111;SDS011;13092;51.996;4.458;2023-02-01T11:24:05;29.95;;;23.52;;
25111;SDS011;13092;51.996;4.458;2023-02-01T11:26:43;25.88;;;23.33;;
25111;SDS011;13092;51.996;4.458;2023-02-01T11:29:12;30.13;;;22.73;;
25111;SDS011;13092;51.996;4.458;2023-02-01T11:31:46;27.70;;;21.25;;
25111;SDS011;13092;51.996;4.458;2023-02-01T11:34:15;25.48;;;22.50;;
25111;SDS011;13092;51.996;4.458;2023-02-01T11:36:50;23.50;;;21.20;;
25111;SDS011;13092;51.996;4.458;2023-02-01T11:39:23;22.92;;;20.73;;
25111;SDS011;13092;51.996;4.458;2023-02-01T11:41:57;22.83;;;20.58;;
25111;SDS011;13092;51.996;4.458;2023-02-01T11:44:30;28.43;;;21.63;;
25111;SDS011;13092;51.996;4.458;2023-02-01T11:47:20;27.15;;;20.48;;
25111;SDS011;13092;51.996;4.458;2023-02-01T11:49:51;22.73;;;20.42;;
25111;SDS011;13092;51.996;4.458;2023-02-01T11:52:33;25.67;;;21.17;;
25111;SDS011;13092;51.996;4.458;2023-02-01T11:55:29;25.67;;;23.23;;
25111;SDS011;13092;51.996;4.458;2023-02-01T11:58:10;26.23;;;21.23;;
25111;SDS011;13092;51.996;4.458;2023-02-01T12:01:00;23.98;;;21.67;;
25111;SDS011;13092;51.996;4.458;2023-02-01T12:03:50;27.83;;;22.40;;
25111;SDS011;13092;51.996;4.458;2023-02-01T12:06:44;24.63;;;22.00;;
25111;SDS011;13092;51.996;4.458;2023-02-01T12:12:13;24.48;;;22.17;;
25111;SDS011;13092;51.996;4.458;2023-02-01T12:14:56;24.52;;;22.05;;
25111;SDS011;13092;51.996;4.458;2023-02-01T12:17:49;25.95;;;22.67;;
25111;SDS011;13092;51.996;4.458;2023-02-01T12:20:47;26.60;;;23.48;;
25111;SDS011;13092;51.996;4.458;2023-02-01T12:23:40;25.08;;;22.65;;
25111;SDS011;13092;51.996;4.458;2023-02-01T12:32:25;25.88;;;23.25;;
25111;SDS011;13092;51.996;4.458;2023-02-01T12:38:10;27.63;;;23.92;;
25111;SDS011;13092;51.996;4.458;2023-02-01T12:40:50;26.77;;;24.33;;
25111;SDS011;13092;51.996;4.458;2023-02-01T12:43:36;26.33;;;23.52;;
25111;SDS011;13092;51.996;4.458;2023-02-01T12:46:10;28.73;;;24.33;;
25111;SDS011;13092;51.996;4.458;2023-02-01T12:48:49;27.58;;;23.35;;
25111;SDS011;13092;51.996;4.458;2023-02-01T12:51:25;25.25;;;22.88;;
25111;SDS011;13092;51.996;4.458;2023-02-01T12:53:57;27.98;;;24.33;;
25111;SDS011;13092;51.996;4.458;2023-02-01T12:56:31;26.83;;;24.33;;
25111;SDS011;13092;51.996;4.458;2023-02-01T12:59:09;24.60;;;22.15;;
25111;SDS011;13092;51.996;4.458;2023-02-01T13:01:51;26.85;;;22.38;;
25111;SDS011;13092;51.996;4.458;2023-02-01T13:04:26;24.63;;;21.77;;
25111;SDS011;13092;51.996;4.458;2023-02-01T13:07:01;24.95;;;22.23;;
25111;SDS011;13092;51.996;4.458;2023-02-01T13:09:36;26.60;;;23.08;;
25111;SDS011;13092;51.996;4.458;2023-02-01T13:12:12;27.23;;;23.63;;
25111;SDS011;13092;51.996;4.458;2023-02-01T13:14:46;33.90;;;23.23;;
25111;SDS011;13092;51.996;4.458;2023-02-01T13:17:19;27.90;;;23.50;;
25111;SDS011;13092;51.996;4.458;2023-02-01T13:19:52;27.10;;;21.98;;
25111;SDS011;13092;51.996;4.458;2023-02-01T13:22:23;27.08;;;23.33;;
25111;SDS011;13092;51.996;4.458;2023-02-01T13:24:56;26.33;;;23.77;;
25111;SDS011;13092;51.996;4.458;2023-02-01T13:27:26;27.02;;;24.10;;
25111;SDS011;13092;51.996;4.458;2023-02-01T13:29:59;27.17;;;24.48;;
25111;SDS011;13092;51.996;4.458;2023-02-01T13:32:45;26.10;;;23.65;;
25111;SDS011;13092;51.996;4.458;2023-02-01T13:39:17;30.27;;;23.95;;
25111;SDS011;13092;51.996;4.458;2023-02-01T13:42:04;25.98;;;23.23;;
25111;SDS011;13092;51.996;4.458;2023-02-01T13:44:41;24.90;;;22.63;;
25111;SDS011;13092;51.996;4.458;2023-02-01T13:47:16;26.53;;;23.73;;
25111;SDS011;13092;51.996;4.458;2023-02-01T13:49:50;28.23;;;25.20;;
25111;SDS011;13092;51.996;4.458;2023-02-01T13:52:25;32.60;;;25.23;;
25111;SDS011;13092;51.996;4.458;2023-02-01T13:55:03;26.92;;;24.25;;
25111;SDS011;13092;51.996;4.458;2023-02-01T13:57:43;31.03;;;23.87;;
25111;SDS011;13092;51.996;4.458;2023-02-01T14:00:24;27.67;;;24.75;;
25111;SDS011;13092;51.996;4.458;2023-02-01T14:06:17;27.02;;;24.20;;
25111;SDS011;13092;51.996;4.458;2023-02-01T14:09:10;27.48;;;24.38;;
25111;SDS011;13092;51.996;4.458;2023-02-01T14:11:45;28.80;;;24.58;;
25111;SDS011;13092;51.996;4.458;2023-02-01T14:26:09;31.27;;;26.35;;
25111;SDS011;13092;51.996;4.458;2023-02-01T14:28:43;27.23;;;24.42;;
25111;SDS011;13092;51.996;4.458;2023-02-01T14:31:31;26.95;;;23.95;;
25111;SDS011;13092;51.996;4.458;2023-02-01T14:34:02;26.52;;;24.00;;
25111;SDS011;13092;51.996;4.458;2023-02-01T14:36:46;28.30;;;25.48;;
25111;SDS011;13092;51.996;4.458;2023-02-01T14:39:33;31.58;;;25.48;;
25111;SDS011;13092;51.996;4.458;2023-02-01T14:42:19;27.98;;;25.30;;
25111;SDS011;13092;51.996;4.458;2023-02-01T14:44:51;28.33;;;25.20;;
25111;SDS011;13092;51.996;4.458;2023-02-01T14:47:26;28.73;;;24.75;;
25111;SDS011;13092;51.996;4.458;2023-02-01T14:50:23;28.98;;;26.33;;
25111;SDS011;13092;51.996;4.458;2023-02-01T14:55:50;27.50;;;24.83;;
25111;SDS011;13092;51.996;4.458;2023-02-01T14:58:31;28.80;;;25.48;;
25111;SDS011;13092;51.996;4.458;2023-02-01T15:01:05;27.90;;;25.10;;
25111;SDS011;13092;51.996;4.458;2023-02-01T15:03:47;28.13;;;25.27;;
25111;SDS011;13092;51.996;4.458;2023-02-01T15:06:22;27.95;;;25.40;;
25111;SDS011;13092;51.996;4.458;2023-02-01T15:08:54;28.50;;;25.75;;
25111;SDS011;13092;51.996;4.458;2023-02-01T15:11:26;27.98;;;25.08;;
25111;SDS011;13092;51.996;4.458;2023-02-01T15:13:54;29.35;;;25.30;;
25111;SDS011;13092;51.996;4.458;2023-02-01T15:16:24;30.77;;;25.70;;
25111;SDS011;13092;51.996;4.458;2023-02-01T15:19:09;29.00;;;26.10;;
25111;SDS011;13092;51.996;4.458;2023-02-01T15:21:42;28.50;;;25.58;;
25111;SDS011;13092;51.996;4.458;2023-02-01T15:24:12;28.80;;;25.10;;
25111;SDS011;13092;51.996;4.458;2023-02-01T15:26:43;27.35;;;24.73;;
25111;SDS011;13092;51.996;4.458;2023-02-01T15:29:11;27.90;;;24.92;;
25111;SDS011;13092;51.996;4.458;2023-02-01T15:31:41;27.20;;;24.40;;
25111;SDS011;13092;51.996;4.458;2023-02-01T15:34:11;28.13;;;25.20;;
25111;SDS011;13092;51.996;4.458;2023-02-01T15:36:43;25.60;;;23.33;;
25111;SDS011;13092;51.996;4.458;2023-02-01T15:39:28;26.42;;;24.13;;
25111;SDS011;13092;51.996;4.458;2023-02-01T15:42:10;28.58;;;25.77;;